createdAt,value
2019-05-22T00:03:35.389Z,188.37
2019-05-22T00:07:47.100Z,198.17
2019-05-22T00:11:59.147Z,193.47
2019-05-22T00:16:09.620Z,199.40
2019-05-22T00:20:23.402Z,197.50
2019-05-22T00:24:35.429Z,192.67
2019-05-22T00:28:46.469Z,203.73
2019-05-22T00:32:59.977Z,196.00
2019-05-22T00:37:11.579Z,191.17
2019-05-22T00:41:24.206Z,189.30
2019-05-22T00:45:36.197Z,196.53
2019-05-22T00:49:49.563Z,195.77
2019-05-22T00:54:19.230Z,189.67
2019-05-22T00:58:47.871Z,189.47
2019-05-22T01:03:00.232Z,189.33
2019-05-22T01:07:13.570Z,189.23
2019-05-22T01:11:25.538Z,190.20
2019-05-22T01:15:37.479Z,193.50
2019-05-22T01:19:49.427Z,198.97
2019-05-22T01:24:00.020Z,199.10
2019-05-22T01:28:11.514Z,202.50
2019-05-22T01:32:29.528Z,207.30
2019-05-22T01:36:44.154Z,201.27
2019-05-22T01:41:05.414Z,201.73
2019-05-22T01:45:18.459Z,206.93
2019-05-22T01:49:31.058Z,202.47
2019-05-22T01:53:42.313Z,206.87
2019-05-22T01:57:54.360Z,207.83
2019-05-22T02:02:04.754Z,204.60
2019-05-22T02:06:17.994Z,209.67
2019-05-22T02:10:35.036Z,209.47
2019-05-22T02:14:48.376Z,211.33
2019-05-22T02:18:58.731Z,212.80
2019-05-22T02:23:09.572Z,214.10
2019-05-22T02:27:20.265Z,203.90
2019-05-22T02:31:30.990Z,202.37
2019-05-22T02:35:42.025Z,210.03
2019-05-22T02:39:53.742Z,207.53
2019-05-22T02:44:08.652Z,202.50
2019-05-22T02:48:20.645Z,203.20
2019-05-22T02:52:30.937Z,209.10
2019-05-22T02:56:41.778Z,204.43
2019-05-22T03:01:02.698Z,208.87
2019-05-22T03:05:15.226Z,202.83
2019-05-22T03:09:27.362Z,207.37
2019-05-22T03:13:57.672Z,213.17
2019-05-22T03:18:08.830Z,208.83
2019-05-22T03:22:31.107Z,214.30
2019-05-22T03:26:48.890Z,211.77
2019-05-22T03:30:59.853Z,215.97
2019-05-22T03:35:12.413Z,217.43
2019-05-22T03:39:22.923Z,217.83
2019-05-22T03:43:33.361Z,213.83
2019-05-22T03:47:45.177Z,224.00
2019-05-22T03:51:55.830Z,233.03
2019-05-22T03:56:06.587Z,218.40
2019-05-22T04:00:19.673Z,217.33
2019-05-22T04:04:35.453Z,214.90
2019-05-22T04:08:45.792Z,210.70
2019-05-22T04:12:56.646Z,209.03
2019-05-22T04:17:09.880Z,213.40
2019-05-22T04:21:20.245Z,214.87
2019-05-22T04:25:31.844Z,212.50
2019-05-22T04:29:43.058Z,209.33
2019-05-22T04:33:54.300Z,207.73
2019-05-22T04:38:06.104Z,210.77
2019-05-22T04:42:18.572Z,209.50
2019-05-22T04:46:29.891Z,216.47
2019-05-22T04:50:41.918Z,204.63
2019-05-22T04:54:52.823Z,207.07
2019-05-22T04:59:05.527Z,205.57
2019-05-22T05:03:17.946Z,203.37
2019-05-22T05:07:28.837Z,203.97
2019-05-22T05:11:39.963Z,207.07
2019-05-22T05:15:50.204Z,204.53
2019-05-22T05:20:00.709Z,201.17
2019-05-22T05:24:11.939Z,210.77
2019-05-22T05:28:24.038Z,197.00
2019-05-22T05:32:36.213Z,200.13
2019-05-22T05:36:47.666Z,202.13
2019-05-22T05:40:58.106Z,202.63
2019-05-22T05:45:13.813Z,201.77
2019-05-22T05:49:24.314Z,198.43
2019-05-22T05:53:56.639Z,198.03
2019-05-22T05:58:27.824Z,200.20
2019-05-22T06:02:38.502Z,196.80
2019-05-22T06:07:00.355Z,186.30
2019-05-22T06:11:33.971Z,199.97
2019-05-22T06:15:48.225Z,201.57
2019-05-22T06:20:06.041Z,207.13
2019-05-22T06:24:35.896Z,193.77
2019-05-22T06:28:47.090Z,197.53
2019-05-22T06:33:07.211Z,193.73
2019-05-22T06:37:40.017Z,193.33
2019-05-22T06:41:51.047Z,203.00
2019-05-22T06:46:01.492Z,192.63
2019-05-22T06:50:12.271Z,197.73
2019-05-22T06:54:24.150Z,193.23
2019-05-22T06:58:34.375Z,188.77
2019-05-22T07:02:44.931Z,190.23
2019-05-22T07:06:56.357Z,201.47
2019-05-22T07:11:06.704Z,181.20
2019-05-22T07:15:21.798Z,191.97
2019-05-22T07:19:33.780Z,186.83
2019-05-22T07:23:45.658Z,190.03
2019-05-22T07:27:58.509Z,189.87
2019-05-22T07:32:09.141Z,193.43
2019-05-22T07:36:21.783Z,191.13
2019-05-22T07:40:34.825Z,189.93
2019-05-22T07:44:45.963Z,186.63
2019-05-22T07:48:59.384Z,191.10
2019-05-22T07:53:10.079Z,192.73
2019-05-22T07:57:23.083Z,185.93
2019-05-22T08:01:33.968Z,186.60
2019-05-22T08:05:50.994Z,188.90
2019-05-22T08:10:03.938Z,191.13
2019-05-22T08:14:15.240Z,192.10
2019-05-22T08:18:27.587Z,187.97
2019-05-22T08:22:41.377Z,182.27
2019-05-22T08:26:54.774Z,189.00
2019-05-22T08:31:06.828Z,189.50
2019-05-22T08:35:17.431Z,187.30
2019-05-22T08:39:27.978Z,187.87
2019-05-22T08:44:03.296Z,180.60
2019-05-22T08:47:52.861Z,185.83
2019-05-22T08:52:04.595Z,184.63
2019-05-22T08:56:15.173Z,180.83
2019-05-22T09:00:26.583Z,189.87
2019-05-22T09:04:37.015Z,204.43
2019-05-22T09:08:47.376Z,185.23
2019-05-22T09:12:57.801Z,201.17
2019-05-22T09:17:08.722Z,192.80
2019-05-22T09:21:19.719Z,188.73
2019-05-22T09:25:30.657Z,190.33
2019-05-22T09:29:40.991Z,187.60
2019-05-22T09:33:51.454Z,187.93
2019-05-22T09:38:01.966Z,184.77
2019-05-22T09:42:12.289Z,185.57
2019-05-22T09:46:24.159Z,190.30
2019-05-22T09:50:34.364Z,195.47
2019-05-22T09:54:45.802Z,193.53
2019-05-22T09:58:56.339Z,186.40
2019-05-22T10:03:07.243Z,180.00
2019-05-22T10:07:17.533Z,187.60
2019-05-22T10:11:28.096Z,188.53
2019-05-22T10:15:41.955Z,190.13
2019-05-22T10:19:53.231Z,183.73
2019-05-22T10:24:05.198Z,192.40
2019-05-22T10:28:15.673Z,184.27
2019-05-22T10:32:32.065Z,186.37
2019-05-22T10:36:43.144Z,187.30
2019-05-22T10:40:53.051Z,183.07
2019-05-22T10:45:03.622Z,194.20
2019-05-22T10:49:14.029Z,185.33
2019-05-22T10:53:33.599Z,184.83
2019-05-22T10:57:40.438Z,186.83
2019-05-22T11:01:48.252Z,186.20
2019-05-22T11:06:07.124Z,184.10
2019-05-22T11:10:12.101Z,181.63
2019-05-22T11:14:22.591Z,185.77
2019-05-22T11:18:33.143Z,186.17
2019-05-22T11:22:44.405Z,189.27
2019-05-22T11:26:56.087Z,187.30
2019-05-22T11:31:07.312Z,184.70
2019-05-22T11:35:19.185Z,188.60
2019-05-22T11:39:39.263Z,186.30
2019-05-22T11:43:44.111Z,189.30
2019-05-22T11:47:55.092Z,188.20
2019-05-22T11:52:07.393Z,184.00
2019-05-22T11:56:18.271Z,185.67
2019-05-22T12:00:29.392Z,183.43
2019-05-22T12:04:47.990Z,183.87
2019-05-22T12:08:54.796Z,180.97
2019-05-22T12:13:06.119Z,179.00
2019-05-22T12:17:16.729Z,189.20
2019-05-22T12:21:27.383Z,181.40
2019-05-22T12:25:37.767Z,182.80
2019-05-22T12:29:50.014Z,182.13
2019-05-22T12:34:01.045Z,183.13
2019-05-22T12:38:13.406Z,184.17
2019-05-22T12:42:25.848Z,181.57
2019-05-22T12:46:37.279Z,189.10
2019-05-22T12:50:47.911Z,184.50
2019-05-22T12:54:59.202Z,178.20
2019-05-22T12:59:11.248Z,185.13
2019-05-22T13:03:23.450Z,183.37
2019-05-22T13:07:33.882Z,187.90
2019-05-22T13:11:44.491Z,187.70
2019-05-22T13:15:55.548Z,186.60
2019-05-22T13:20:08.158Z,189.57
2019-05-22T13:24:22.063Z,190.30
2019-05-22T13:28:33.818Z,188.00
2019-05-22T13:32:45.346Z,191.10
2019-05-22T13:36:56.923Z,192.93
2019-05-22T13:41:07.644Z,187.97
2019-05-22T13:45:28.379Z,190.20
2019-05-22T13:49:31.845Z,194.13
2019-05-22T13:53:43.583Z,195.87
2019-05-22T13:57:54.162Z,189.50
2019-05-22T14:02:05.162Z,184.73
2019-05-22T14:06:15.463Z,194.00
2019-05-22T14:10:28.235Z,188.90
2019-05-22T14:14:38.591Z,188.90
2019-05-22T14:18:49.127Z,191.97
2019-05-22T14:22:59.436Z,186.87
2019-05-22T14:27:09.885Z,190.80
2019-05-22T14:31:20.532Z,193.37
2019-05-22T14:35:47.086Z,190.03
2019-05-22T14:39:44.216Z,194.03
2019-05-22T14:43:54.452Z,183.37
2019-05-22T14:48:04.891Z,188.97
2019-05-22T14:52:15.737Z,191.27
2019-05-22T14:56:27.656Z,188.43
2019-05-22T15:00:40.924Z,187.10
2019-05-22T15:04:52.063Z,184.97
2019-05-22T15:09:02.860Z,188.60
2019-05-22T15:13:13.796Z,182.73
2019-05-22T15:17:32.170Z,182.70
2019-05-22T15:21:36.815Z,186.80
2019-05-22T15:25:47.485Z,183.10
2019-05-22T15:29:58.056Z,187.53
2019-05-22T15:34:08.834Z,187.77
2019-05-22T15:38:20.148Z,197.27
2019-05-22T15:42:39.860Z,187.57
2019-05-22T15:46:50.759Z,186.90
2019-05-22T15:51:04.548Z,184.83
2019-05-22T15:55:15.621Z,187.30
2019-05-22T15:59:27.443Z,185.37
2019-05-22T16:03:40.262Z,185.13
2019-05-22T16:07:51.633Z,183.27
2019-05-22T16:12:02.365Z,180.23
2019-05-22T16:16:17.246Z,187.77
2019-05-22T16:20:29.206Z,179.53
2019-05-22T16:24:40.947Z,185.53
2019-05-22T16:28:52.053Z,184.00
2019-05-22T16:33:03.783Z,186.40
2019-05-22T16:37:15.760Z,188.50
2019-05-22T16:41:26.393Z,185.53
2019-05-22T16:45:37.061Z,187.30
2019-05-22T16:49:47.976Z,191.60
2019-05-22T16:54:03.407Z,187.70
2019-05-22T16:58:14.560Z,185.93
2019-05-22T17:02:24.896Z,178.60
2019-05-22T17:06:36.750Z,185.07
2019-05-22T17:10:51.044Z,191.03
2019-05-22T17:15:01.468Z,186.10
2019-05-22T17:19:26.560Z,185.57
2019-05-22T17:23:28.185Z,186.07
2019-05-22T17:27:38.556Z,184.00
2019-05-22T17:31:48.927Z,182.60
2019-05-22T17:36:00.451Z,180.17
2019-05-22T17:40:11.525Z,183.15
2019-05-22T17:44:22.533Z,184.93
2019-05-22T17:48:34.573Z,182.50
2019-05-22T17:52:46.177Z,182.73
2019-05-22T17:56:56.910Z,179.53
2019-05-22T18:01:08.299Z,180.70
2019-05-22T18:05:20.496Z,181.23
2019-05-22T18:09:32.998Z,180.93
2019-05-22T18:14:00.876Z,182.97
2019-05-22T18:18:12.714Z,181.27
2019-05-22T18:22:23.210Z,185.70
2019-05-22T18:26:34.485Z,187.27
2019-05-22T18:30:45.406Z,179.93
2019-05-22T18:34:56.715Z,186.17
2019-05-22T18:39:09.463Z,187.67
2019-05-22T18:43:22.905Z,179.63
2019-05-22T18:47:31.687Z,185.00
2019-05-22T18:51:42.584Z,183.93
2019-05-22T18:55:52.784Z,178.73
2019-05-22T19:00:06.346Z,180.33
2019-05-22T19:04:16.791Z,179.07
2019-05-22T19:08:27.184Z,182.77
2019-05-22T19:12:37.489Z,179.97
2019-05-22T19:16:47.716Z,182.80
2019-05-22T19:20:58.086Z,182.17
2019-05-22T19:25:08.622Z,181.83
2019-05-22T19:29:19.317Z,177.83
2019-05-22T19:33:29.608Z,176.70
2019-05-22T19:37:39.935Z,179.17
2019-05-22T19:42:02.043Z,176.93
2019-05-22T19:46:02.359Z,183.13
2019-05-22T19:50:22.767Z,180.37
2019-05-22T19:54:24.973Z,189.93
2019-05-22T19:58:35.767Z,182.57
2019-05-22T20:02:50.686Z,180.30
2019-05-22T20:07:00.407Z,181.30
2019-05-22T20:11:11.076Z,179.83
2019-05-22T20:15:22.719Z,190.70
2019-05-22T20:19:33.231Z,184.63
2019-05-22T20:23:44.510Z,180.80
2019-05-22T20:27:56.451Z,181.80
2019-05-22T20:32:09.288Z,178.90
2019-05-22T20:36:19.624Z,182.17
2019-05-22T20:40:30.576Z,182.40
2019-05-22T20:44:41.179Z,177.23
2019-05-22T20:48:52.248Z,179.27
2019-05-22T20:53:04.095Z,179.80
2019-05-22T20:57:19.593Z,177.97
2019-05-22T21:01:27.987Z,176.83
2019-05-22T21:05:39.926Z,179.93
2019-05-22T21:09:50.256Z,179.63
2019-05-22T21:14:01.135Z,178.50
2019-05-22T21:18:12.753Z,178.60
2019-05-22T21:22:23.716Z,184.37
2019-05-22T21:26:34.771Z,180.20
2019-05-22T21:30:45.409Z,179.20
2019-05-22T21:34:56.703Z,177.27
2019-05-22T21:39:11.357Z,179.80
2019-05-22T21:43:21.686Z,181.17
2019-05-22T21:47:33.368Z,176.70
2019-05-22T21:51:44.120Z,182.40
2019-05-22T21:56:04.098Z,177.77
2019-05-22T22:00:26.871Z,182.23
2019-05-22T22:04:37.968Z,179.63
2019-05-22T22:08:48.414Z,175.40
2019-05-22T22:12:59.654Z,177.80
2019-05-22T22:17:10.229Z,178.53
2019-05-22T22:21:21.456Z,179.27
2019-05-22T22:25:31.994Z,181.50
2019-05-22T22:29:42.456Z,175.03
2019-05-22T22:33:56.404Z,181.73
2019-05-22T22:38:08.418Z,175.67
2019-05-22T22:42:21.934Z,175.60
2019-05-22T22:46:40.049Z,178.43
2019-05-22T22:50:50.428Z,177.60
2019-05-22T22:55:01.722Z,179.80
2019-05-22T22:59:14.201Z,180.13
2019-05-22T23:03:27.920Z,178.40
2019-05-22T23:07:41.231Z,179.17
2019-05-22T23:11:51.831Z,182.80
2019-05-22T23:16:02.330Z,180.03
2019-05-22T23:20:11.828Z,182.47
2019-05-22T23:24:24.359Z,181.60
2019-05-22T23:28:40.524Z,180.03
2019-05-22T23:32:49.383Z,176.20
2019-05-22T23:37:00.690Z,178.83
2019-05-22T23:41:12.743Z,179.00
2019-05-22T23:45:23.314Z,177.30
2019-05-22T23:49:33.767Z,177.73
2019-05-22T23:53:45.625Z,180.63
2019-05-22T23:57:57.075Z,177.47
